Time;durP1;ratioP1;P1;durP2;ratioP2;P2;SDS_P1;SDS_P2;PMS_P1;PMS_P2;Temp;Humidity;BMP_temperature;BMP_pressure;BME280_temperature;BME280_humidity;BME280_pressure;Samples;Min_cycle;Max_cycle;Signal;HPM_P1;HPM_P2
2024/01/01 00:00:23;;;;;;;6.70;2.80;;;6.60;99.90;;;;;;5116583;28;20175;-79
2024/01/01 00:02:49;;;;;;;5.37;2.73;;;6.60;99.90;;;;;;5098413;28;20206;-79
2024/01/01 00:05:14;;;;;;;5.03;2.30;;;6.60;99.90;;;;;;5098523;28;20244;-77
2024/01/01 00:07:41;;;;;;;3.97;2.30;;;6.60;99.90;;;;;;5116456;28;20175;-79
2024/01/01 00:10:07;;;;;;;4.07;2.40;;;6.70;99.90;;;;;;5098103;28;20182;-79
2024/01/01 00:12:33;;;;;;;4.80;2.37;;;6.70;1.00;;;;;;5098640;28;20195;-78
2024/01/01 00:14:59;;;;;;;6.10;2.53;;;6.70;49.20;;;;;;5097988;28;20240;-79
2024/01/01 00:17:25;;;;;;;6.70;2.53;;;6.60;99.90;;;;;;5098332;28;20551;-79
2024/01/01 00:19:51;;;;;;;5.37;2.77;;;6.60;99.90;;;;;;5097964;28;20172;-79
2024/01/01 00:22:16;;;;;;;4.70;2.70;;;6.60;99.90;;;;;;5158121;22;20238;-80
2024/01/01 00:24:42;;;;;;;6.80;2.60;;;6.70;99.90;;;;;;5073732;28;20212;-82
2024/01/01 00:27:08;;;;;;;6.13;2.67;;;6.60;99.90;;;;;;5072465;28;20184;-82
2024/01/01 00:29:33;;;;;;;4.63;2.47;;;6.60;99.90;;;;;;5073794;28;20173;-82
2024/01/01 00:31:59;;;;;;;7.27;2.63;;;6.70;78.30;;;;;;5073300;28;20317;-82
2024/01/01 00:34:24;;;;;;;4.10;2.33;;;6.60;99.90;;;;;;5073885;28;20200;-82
2024/01/01 00:36:50;;;;;;;6.83;2.27;;;6.70;98.90;;;;;;5072671;28;20263;-82
2024/01/01 00:39:17;;;;;;;4.13;2.03;;;6.70;1.00;;;;;;5072533;28;20169;-82
2024/01/01 00:41:45;;;;;;;4.63;2.50;;;6.70;1.00;;;;;;5072320;28;20578;-82
2024/01/01 00:44:11;;;;;;;6.20;2.97;;;6.70;1.00;;;;;;5072677;28;20267;-82
2024/01/01 00:46:37;;;;;;;4.60;2.40;;;6.60;1.00;;;;;;5073935;28;20200;-81
2024/01/01 00:49:02;;;;;;;3.97;2.20;;;6.60;1.00;;;;;;5073482;28;20227;-82
2024/01/01 00:51:28;;;;;;;5.17;2.43;;;6.60;99.90;;;;;;5072905;28;20185;-82
2024/01/01 00:53:53;;;;;;;4.90;2.77;;;6.70;1.00;;;;;;5073742;28;20552;-79
2024/01/01 00:56:19;;;;;;;4.50;2.43;;;6.70;1.00;;;;;;5073711;28;20173;-82
2024/01/01 00:58:44;;;;;;;5.33;2.53;;;6.70;99.90;;;;;;5073616;28;20175;-82
2024/01/01 01:01:10;;;;;;;6.57;2.80;;;6.70;99.90;;;;;;5071676;28;20169;-82
2024/01/01 01:03:36;;;;;;;5.53;3.13;;;6.70;99.90;;;;;;5073475;28;20196;-82
2024/01/01 01:06:05;;;;;;;6.47;3.00;;;6.60;99.90;;;;;;5072316;28;20636;-80
2024/01/01 01:08:31;;;;;;;4.67;3.27;;;6.70;99.90;;;;;;5072064;28;20203;-82
2024/01/01 01:10:56;;;;;;;8.07;3.00;;;6.70;99.90;;;;;;5072987;28;20176;-82
2024/01/01 01:13:22;;;;;;;8.67;3.60;;;6.70;99.90;;;;;;5073259;28;20192;-82
2024/01/01 01:15:48;;;;;;;5.13;2.97;;;6.70;1.00;;;;;;5073125;28;20193;-82
2024/01/01 01:18:14;;;;;;;4.43;2.90;;;6.60;1.00;;;;;;5073205;28;20173;-82
2024/01/01 01:20:39;;;;;;;6.00;2.80;;;6.60;1.00;;;;;;5073221;28;20173;-82
2024/01/01 01:23:05;;;;;;;9.03;3.53;;;6.60;99.90;;;;;;5071795;28;20201;-81
2024/01/01 01:25:31;;;;;;;6.63;3.67;;;6.60;99.90;;;;;;5071808;28;20179;-82
2024/01/01 01:27:57;;;;;;;7.30;4.13;;;6.60;1.00;;;;;;5071695;28;20176;-82
2024/01/01 01:30:22;;;;;;;6.40;3.90;;;6.60;1.00;;;;;;5073047;28;20180;-82
2024/01/01 01:32:48;;;;;;;9.07;4.40;;;6.60;1.00;;;;;;5071856;28;20192;-82
2024/01/01 01:35:14;;;;;;;10.50;4.17;;;6.60;1.00;;;;;;5072888;28;20570;-82
2024/01/01 01:37:39;;;;;;;7.60;4.50;;;6.70;99.90;;;;;;5071564;28;20216;-81
2024/01/01 01:40:05;;;;;;;7.83;4.13;;;6.70;99.90;;;;;;5071364;28;20202;-82
2024/01/01 01:42:31;;;;;;;8.30;4.20;;;6.70;99.90;;;;;;5071462;28;20193;-82
2024/01/01 01:44:56;;;;;;;7.40;4.37;;;6.60;1.00;;;;;;5071974;28;20188;-82
2024/01/01 01:47:24;;;;;;;7.93;4.83;;;6.60;1.00;;;;;;5071680;28;20312;-82
2024/01/01 01:49:51;;;;;;;6.30;4.53;;;6.60;1.00;;;;;;5072699;28;20177;-81
2024/01/01 01:52:17;;;;;;;13.03;4.60;;;6.60;1.00;;;;;;5071634;28;20204;-82
2024/01/01 01:54:44;;;;;;;6.90;4.93;;;6.60;99.90;;;;;;5072915;28;20207;-82
2024/01/01 01:57:10;;;;;;;7.73;4.33;;;6.60;1.00;;;;;;5071753;28;20264;-82
2024/01/01 01:59:35;;;;;;;9.87;4.73;;;6.60;1.00;;;;;;5072595;28;20254;-82
2024/01/01 02:02:01;;;;;;;7.43;4.10;;;6.60;1.00;;;;;;5074946;28;20202;-82
2024/01/01 02:04:26;;;;;;;6.57;4.03;;;6.60;1.00;;;;;;5075751;28;20213;-82
2024/01/01 02:06:52;;;;;;;9.33;4.70;;;6.60;1.00;;;;;;5076947;28;20188;-82
2024/01/01 02:09:18;;;;;;;9.10;4.40;;;6.60;99.90;;;;;;5076617;28;20210;-82
2024/01/01 02:11:43;;;;;;;6.23;4.17;;;6.60;99.90;;;;;;5076596;28;20239;-82
2024/01/01 02:14:14;;;;;;;7.50;4.10;;;6.60;1.00;;;;;;5075333;28;20196;-82
2024/01/01 02:16:40;;;;;;;9.17;4.37;;;6.60;1.00;;;;;;5075211;28;20264;-82
2024/01/01 02:19:16;;;;;;;7.00;4.03;;;6.60;1.00;;;;;;5075364;28;20268;-81
2024/01/01 02:21:41;;;;;;;8.83;4.67;;;6.60;1.00;;;;;;5076288;28;20222;-82
2024/01/01 02:24:08;;;;;;;10.50;4.63;;;6.60;1.00;;;;;;5076649;28;20216;-82
2024/01/01 02:26:34;;;;;;;7.70;4.30;;;6.60;1.00;;;;;;5075017;28;20276;-82
2024/01/01 02:29:00;;;;;;;11.20;4.43;;;6.60;1.00;;;;;;5076392;28;20183;-82
2024/01/01 02:31:25;;;;;;;10.33;4.63;;;6.50;1.00;;;;;;5074849;28;20173;-81
2024/01/01 02:33:51;;;;;;;8.97;5.13;;;6.50;1.00;;;;;;5076232;28;20186;-82
2024/01/01 02:36:17;;;;;;;6.07;4.50;;;6.50;1.00;;;;;;5074601;28;20173;-82
2024/01/01 02:38:42;;;;;;;7.10;4.43;;;6.50;1.00;;;;;;5076116;28;20541;-82
2024/01/01 02:41:08;;;;;;;8.80;4.03;;;6.60;99.90;;;;;;5074588;28;20560;-82
2024/01/01 02:43:34;;;;;;;7.87;4.50;;;6.60;1.00;;;;;;5074689;28;20257;-83
2024/01/01 02:45:59;;;;;;;8.53;4.97;;;6.60;1.00;;;;;;5076220;28;20173;-82
2024/01/01 02:48:25;;;;;;;7.07;4.50;;;6.60;99.90;;;;;;5075771;28;20173;-82
2024/01/01 02:50:50;;;;;;;7.50;4.93;;;6.60;99.90;;;;;;5074364;28;20173;-82
2024/01/01 02:53:16;;;;;;;9.07;5.07;;;6.60;99.90;;;;;;5074289;28;20267;-82
2024/01/01 02:55:41;;;;;;;10.30;5.30;;;6.60;1.00;;;;;;5075727;28;20200;-82
2024/01/01 02:58:07;;;;;;;7.90;5.27;;;6.60;1.00;;;;;;5074725;28;20184;-81
2024/01/01 03:00:32;;;;;;;8.87;5.37;;;6.60;1.00;;;;;;5074405;28;20183;-82
2024/01/01 03:02:58;;;;;;;9.57;5.17;;;6.50;1.00;;;;;;5074528;28;20227;-82
2024/01/01 03:05:25;;;;;;;9.93;5.67;;;6.50;1.00;;;;;;5074546;28;20187;-82
2024/01/01 03:07:51;;;;;;;8.90;5.53;;;6.50;1.00;;;;;;5074286;28;20173;-82
2024/01/01 03:10:17;;;;;;;11.03;5.60;;;6.50;1.00;;;;;;5073941;28;20180;-82
2024/01/01 03:12:43;;;;;;;8.93;5.47;;;6.50;1.00;;;;;;5074491;28;20201;-82
2024/01/01 03:15:09;;;;;;;8.07;5.10;;;6.50;1.00;;;;;;5075265;28;20200;-82
2024/01/01 03:17:34;;;;;;;11.37;5.67;;;6.60;1.00;;;;;;5075395;28;20172;-82
2024/01/01 03:20:00;;;;;;;11.10;5.80;;;6.60;1.00;;;;;;5075213;28;20534;-82
2024/01/01 03:22:26;;;;;;;10.00;5.33;;;6.50;1.00;;;;;;5073791;28;20208;-82
2024/01/01 03:24:52;;;;;;;8.80;5.13;;;6.60;1.00;;;;;;5075404;28;20211;-82
2024/01/01 03:27:17;;;;;;;9.00;5.43;;;6.50;1.00;;;;;;5073796;28;20181;-82
2024/01/01 03:29:43;;;;;;;9.30;5.67;;;6.50;1.00;;;;;;5075344;28;20177;-82
2024/01/01 03:32:09;;;;;;;8.50;4.87;;;6.50;1.00;;;;;;5073398;28;20759;-82
2024/01/01 03:34:34;;;;;;;9.10;4.83;;;6.50;1.00;;;;;;5075238;28;20268;-82
2024/01/01 03:37:01;;;;;;;9.13;5.07;;;6.40;1.00;;;;;;5075308;28;20173;-82
2024/01/01 03:39:27;;;;;;;8.33;4.97;;;6.40;1.00;;;;;;5075239;28;20202;-81
2024/01/01 03:41:53;;;;;;;11.97;5.63;;;6.30;1.00;;;;;;5074891;28;20197;-82
2024/01/01 03:44:18;;;;;;;9.63;5.37;;;6.30;1.00;;;;;;5073534;28;20553;-82
2024/01/01 03:46:45;;;;;;;10.17;5.43;;;6.30;1.20;;;;;;5074935;28;20200;-82
2024/01/01 03:49:11;;;;;;;10.83;5.67;;;6.30;39.30;;;;;;5074684;28;20564;-81
2024/01/01 03:51:37;;;;;;;9.23;5.00;;;6.30;77.10;;;;;;5073412;28;20180;-82
2024/01/01 03:54:02;;;;;;;7.40;4.97;;;6.30;95.50;;;;;;5073283;28;20253;-82
2024/01/01 03:56:28;;;;;;;9.20;4.77;;;6.20;99.90;;;;;;5074829;28;20710;-82
2024/01/01 03:58:53;;;;;;;10.70;4.87;;;6.30;99.90;;;;;;5074666;28;20180;-82
2024/01/01 04:01:22;;;;;;;8.00;5.03;;;6.30;99.90;;;;;;5074436;28;20263;-82
2024/01/01 04:03:48;;;;;;;11.07;5.10;;;6.30;99.90;;;;;;5072827;28;20663;-82
2024/01/01 04:06:13;;;;;;;10.13;5.27;;;6.30;99.90;;;;;;5073375;28;20261;-82
2024/01/01 04:08:39;;;;;;;9.40;4.87;;;6.30;99.90;;;;;;5072999;28;20266;-82
2024/01/01 04:11:04;;;;;;;9.97;5.10;;;6.30;99.90;;;;;;5073064;28;20176;-82
2024/01/01 04:13:30;;;;;;;8.70;4.33;;;6.30;99.90;;;;;;5074021;28;20563;-82
2024/01/01 04:15:55;;;;;;;10.17;4.77;;;6.30;99.90;;;;;;5072922;28;20243;-82
2024/01/01 04:18:21;;;;;;;7.13;4.43;;;6.30;99.90;;;;;;5074394;28;20203;-82
2024/01/01 04:20:47;;;;;;;8.63;4.27;;;6.30;99.90;;;;;;5073966;28;20546;-82
2024/01/01 04:23:12;;;;;;;7.97;4.20;;;6.30;92.50;;;;;;5074082;28;20212;-82
2024/01/01 04:25:38;;;;;;;9.07;4.00;;;6.30;98.00;;;;;;5072321;28;20180;-81
2024/01/01 04:28:04;;;;;;;9.10;4.17;;;6.30;50.00;;;;;;5072635;28;20276;-81
2024/01/01 04:30:29;;;;;;;7.57;4.00;;;6.30;1.00;;;;;;5072529;28;20575;-82
2024/01/01 04:32:55;;;;;;;8.93;4.27;;;6.30;1.00;;;;;;5071435;28;20208;-82
2024/01/01 04:35:20;;;;;;;9.73;4.00;;;6.20;30.00;;;;;;5073850;28;20257;-82
2024/01/01 04:37:46;;;;;;;8.77;4.10;;;6.20;1.00;;;;;;5073600;28;20172;-82
2024/01/01 04:40:12;;;;;;;7.27;3.80;;;6.30;1.00;;;;;;5072332;28;20226;-82
2024/01/01 04:42:37;;;;;;;8.30;3.53;;;6.30;1.00;;;;;;5072371;28;20203;-82
2024/01/01 04:45:03;;;;;;;7.63;3.60;;;6.30;1.00;;;;;;5072756;28;20260;-83
2024/01/01 04:47:29;;;;;;;9.63;3.50;;;6.30;1.00;;;;;;5073818;28;20234;-82
2024/01/01 04:49:54;;;;;;;6.47;3.37;;;6.30;1.00;;;;;;5073295;28;20251;-82
2024/01/01 04:52:20;;;;;;;7.00;3.77;;;6.30;1.00;;;;;;5073585;28;20287;-82
2024/01/01 04:54:46;;;;;;;7.43;3.10;;;6.30;1.00;;;;;;5072003;28;20247;-82
2024/01/01 04:57:11;;;;;;;7.03;3.20;;;6.30;1.00;;;;;;5073193;28;20180;-82
2024/01/01 04:59:37;;;;;;;9.47;3.13;;;6.30;1.00;;;;;;5072202;28;20183;-82
2024/01/01 05:02:02;;;;;;;5.47;2.57;;;6.30;1.00;;;;;;5071970;28;20684;-82
2024/01/01 05:04:28;;;;;;;5.80;2.60;;;6.30;1.00;;;;;;5072317;28;20204;-82
2024/01/01 05:06:53;;;;;;;5.60;2.73;;;6.30;1.00;;;;;;5072107;28;20194;-82
2024/01/01 05:09:19;;;;;;;5.23;2.73;;;6.30;1.00;;;;;;5072243;28;20644;-82
2024/01/01 05:11:44;;;;;;;6.73;2.83;;;6.30;1.00;;;;;;5071643;28;20244;-82
2024/01/01 05:14:10;;;;;;;7.73;2.37;;;6.30;1.00;;;;;;5073395;28;20192;-82
2024/01/01 05:16:36;;;;;;;5.13;2.30;;;6.30;1.00;;;;;;5072673;28;20530;-82
2024/01/01 05:19:02;;;;;;;6.33;2.30;;;6.20;1.00;;;;;;5070876;28;20176;-81
2024/01/01 05:21:28;;;;;;;6.07;2.40;;;6.30;1.00;;;;;;5071059;28;20173;-82
2024/01/01 05:23:53;;;;;;;5.50;2.40;;;6.30;1.00;;;;;;5071625;28;20270;-82
2024/01/01 05:26:19;;;;;;;5.27;2.03;;;6.30;1.00;;;;;;5072146;28;20208;-82
2024/01/01 05:28:45;;;;;;;7.00;2.33;;;6.30;1.00;;;;;;5067850;28;20173;-81
2024/01/01 05:31:10;;;;;;;4.80;2.00;;;6.30;1.00;;;;;;5051624;28;20238;-82
2024/01/01 05:33:36;;;;;;;4.27;2.17;;;6.30;1.00;;;;;;5052997;28;20193;-82
2024/01/01 05:36:02;;;;;;;6.23;2.33;;;6.30;1.00;;;;;;5052333;28;20665;-82
2024/01/01 05:38:28;;;;;;;8.90;2.77;;;6.30;1.00;;;;;;5053057;28;20180;-81
2024/01/01 05:40:54;;;;;;;5.27;2.10;;;6.20;1.00;;;;;;5064155;28;20278;-82
2024/01/01 05:43:21;;;;;;;4.93;1.93;;;6.20;1.00;;;;;;5071663;28;20213;-82
2024/01/01 05:45:47;;;;;;;5.57;1.80;;;6.20;1.00;;;;;;5072436;28;20174;-82
2024/01/01 05:48:13;;;;;;;4.80;1.90;;;6.20;1.00;;;;;;5072931;28;20640;-81
2024/01/01 05:50:38;;;;;;;4.53;2.07;;;6.20;1.00;;;;;;5071651;28;20238;-82
2024/01/01 05:53:06;;;;;;;4.57;2.10;;;6.20;1.00;;;;;;5072837;28;20193;-81
2024/01/01 05:55:33;;;;;;;5.63;2.10;;;6.20;1.00;;;;;;5071241;28;20201;-82
2024/01/01 05:57:58;;;;;;;4.03;1.83;;;6.20;1.00;;;;;;5073094;28;20208;-82
2024/01/01 06:00:25;;;;;;;3.87;1.87;;;6.20;1.00;;;;;;5072857;28;20183;-81
2024/01/01 06:02:51;;;;;;;6.03;2.00;;;6.20;1.00;;;;;;5072870;28;20193;-81
2024/01/01 06:05:16;;;;;;;7.53;3.17;;;6.20;1.00;;;;;;5071795;28;20180;-81
2024/01/01 06:07:42;;;;;;;5.97;2.20;;;6.20;1.00;;;;;;5072790;28;20176;-82
2024/01/01 06:10:08;;;;;;;6.53;2.47;;;6.20;1.00;;;;;;5072323;28;20259;-80
2024/01/01 06:12:33;;;;;;;4.30;1.80;;;6.20;1.00;;;;;;5071195;28;20622;-81
2024/01/01 06:14:59;;;;;;;4.37;2.03;;;6.20;1.00;;;;;;5072273;28;20675;-81
2024/01/01 06:17:24;;;;;;;4.37;2.20;;;6.10;1.00;;;;;;5072228;28;20184;-81
2024/01/01 06:19:50;;;;;;;4.43;2.17;;;6.10;1.00;;;;;;5070821;28;20268;-81
2024/01/01 06:22:16;;;;;;;4.93;2.00;;;6.10;1.00;;;;;;5072847;28;20278;-80
2024/01/01 06:24:42;;;;;;;6.57;1.83;;;6.10;1.00;;;;;;5072328;28;20223;-80
2024/01/01 06:27:07;;;;;;;5.00;2.30;;;6.10;1.00;;;;;;5071203;28;20216;-81
2024/01/01 06:29:33;;;;;;;7.50;1.87;;;6.10;1.00;;;;;;5071128;28;20175;-80
2024/01/01 06:31:58;;;;;;;6.37;2.37;;;6.10;1.00;;;;;;5070677;28;20204;-78
2024/01/01 06:34:24;;;;;;;6.50;2.00;;;6.00;57.30;;;;;;5071008;28;20204;-79
2024/01/01 06:36:49;;;;;;;7.63;2.00;;;6.00;1.00;;;;;;5072176;28;20222;-83
2024/01/01 06:39:15;;;;;;;5.80;2.00;;;6.10;1.00;;;;;;5069766;28;20184;-84
2024/01/01 06:41:41;;;;;;;5.80;1.93;;;6.10;1.00;;;;;;5070392;28;20220;-84
2024/01/01 06:44:06;;;;;;;7.00;2.00;;;6.10;1.00;;;;;;5070931;28;20179;-84
2024/01/01 06:46:32;;;;;;;6.33;1.73;;;6.10;1.00;;;;;;5071922;28;20559;-84
2024/01/01 06:48:57;;;;;;;6.73;1.80;;;6.10;1.00;;;;;;5074113;28;20180;-86
2024/01/01 06:51:23;;;;;;;5.03;1.50;;;6.10;1.00;;;;;;5075059;28;20181;-85
2024/01/01 06:53:48;;;;;;;3.67;1.83;;;6.10;1.00;;;;;;5075506;28;20183;-84
2024/01/01 06:56:14;;;;;;;3.47;1.60;;;6.10;1.00;;;;;;5074542;28;20558;-84
2024/01/01 06:58:40;;;;;;;3.80;1.63;;;6.10;1.00;;;;;;5075413;28;20653;-85
2024/01/01 07:01:06;;;;;;;3.83;1.50;;;6.10;1.00;;;;;;5075228;28;20187;-83
2024/01/01 07:03:31;;;;;;;2.70;1.77;;;6.10;1.00;;;;;;5073384;28;20193;-82
2024/01/01 07:05:57;;;;;;;3.90;1.80;;;6.10;1.00;;;;;;5075461;28;20656;-85
2024/01/01 07:08:23;;;;;;;5.27;2.10;;;6.10;1.00;;;;;;5073879;28;20315;-83
2024/01/01 07:10:49;;;;;;;6.70;2.30;;;6.10;1.00;;;;;;5073527;28;20180;-84
2024/01/01 07:13:14;;;;;;;8.83;2.10;;;6.10;1.00;;;;;;5075035;28;20203;-83
2024/01/01 07:15:40;;;;;;;4.23;1.67;;;6.10;1.00;;;;;;5074736;28;20200;-83
2024/01/01 07:18:07;;;;;;;3.40;1.50;;;6.10;1.00;;;;;;5073548;28;20238;-84
2024/01/01 07:20:32;;;;;;;4.00;1.73;;;6.10;1.00;;;;;;5074738;28;20219;-83
2024/01/01 07:22:58;;;;;;;5.83;1.80;;;6.10;1.00;;;;;;5074811;28;20215;-84
2024/01/01 07:25:24;;;;;;;6.90;1.93;;;6.10;1.00;;;;;;5073417;28;20225;-81
2024/01/01 07:27:50;;;;;;;4.50;1.87;;;6.10;1.00;;;;;;5075179;28;20267;-80
2024/01/01 07:30:16;;;;;;;5.57;2.10;;;6.10;1.00;;;;;;5074905;28;20562;-80
2024/01/01 07:32:41;;;;;;;6.77;2.10;;;6.00;1.00;;;;;;5073777;28;20583;-80
2024/01/01 07:35:08;;;;;;;5.47;1.83;;;6.00;1.00;;;;;;5074971;28;20218;-81
2024/01/01 07:37:34;;;;;;;5.67;1.70;;;6.00;1.00;;;;;;5073460;28;20183;-80
2024/01/01 07:40:00;;;;;;;6.80;2.03;;;6.00;1.00;;;;;;5075269;28;20270;-80
2024/01/01 07:42:26;;;;;;;3.10;1.50;;;6.00;1.00;;;;;;5065881;28;20287;-80
2024/01/01 07:44:52;;;;;;;5.10;1.70;;;6.00;1.00;;;;;;5072849;28;20556;-81
2024/01/01 07:47:19;;;;;;;5.63;2.13;;;6.00;1.00;;;;;;5072525;28;20658;-80
2024/01/01 07:49:45;;;;;;;3.50;1.47;;;6.00;1.00;;;;;;5073748;28;20185;-80
2024/01/01 07:52:11;;;;;;;4.23;1.30;;;6.00;1.00;;;;;;5073996;28;20290;-81
2024/01/01 07:54:39;;;;;;;3.37;1.60;;;6.00;1.00;;;;;;5072341;28;20208;-81
2024/01/01 07:57:06;;;;;;;5.33;1.47;;;6.00;1.00;;;;;;5073627;28;20199;-81
2024/01/01 07:59:32;;;;;;;3.97;1.37;;;6.00;1.00;;;;;;5072855;28;20169;-81
2024/01/01 08:01:57;;;;;;;4.27;1.30;;;6.00;1.00;;;;;;5073264;28;20195;-81
2024/01/01 08:04:23;;;;;;;3.90;1.10;;;5.90;1.00;;;;;;5057182;28;20185;-81
2024/01/01 08:06:49;;;;;;;4.17;1.17;;;6.00;1.00;;;;;;5073707;28;20180;-81
2024/01/01 08:09:14;;;;;;;3.70;1.50;;;6.00;1.00;;;;;;5064138;28;20201;-83
2024/01/01 08:11:40;;;;;;;3.33;1.50;;;6.10;1.00;;;;;;5072890;28;20738;-81
2024/01/01 08:14:06;;;;;;;4.67;1.40;;;6.00;1.00;;;;;;5071368;28;20214;-81
2024/01/01 08:16:34;;;;;;;3.30;1.37;;;6.10;1.00;;;;;;5061573;28;20214;-81
2024/01/01 08:18:59;;;;;;;6.63;1.63;;;6.00;1.00;;;;;;5067422;28;20169;-81
2024/01/01 08:21:25;;;;;;;6.03;1.83;;;6.10;1.00;;;;;;5073097;28;20200;-81
2024/01/01 08:23:50;;;;;;;6.67;1.43;;;6.10;1.00;;;;;;5073097;28;20200;-81
2024/01/01 08:26:16;;;;;;;4.03;1.60;;;6.00;1.00;;;;;;5055482;28;20235;-81
2024/01/01 08:28:42;;;;;;;5.93;1.93;;;6.00;1.00;;;;;;5060048;28;20200;-81
2024/01/01 08:31:07;;;;;;;5.07;2.00;;;6.00;1.00;;;;;;5051745;28;20177;-82
2024/01/01 08:33:33;;;;;;;7.53;2.53;;;6.00;95.70;;;;;;5053115;28;20205;-81
2024/01/01 08:35:58;;;;;;;5.27;1.50;;;6.00;99.90;;;;;;5059104;28;20671;-81
2024/01/01 08:38:24;;;;;;;4.67;1.77;;;6.00;99.90;;;;;;5072323;28;20177;-81
2024/01/01 08:40:51;;;;;;;8.30;1.80;;;6.00;99.90;;;;;;5065737;28;20230;-82
2024/01/01 08:43:16;;;;;;;4.47;1.50;;;5.90;99.90;;;;;;5066746;28;20627;-82
2024/01/01 08:45:42;;;;;;;4.80;1.40;;;5.90;99.90;;;;;;5069533;28;20179;-81
2024/01/01 08:48:07;;;;;;;6.57;1.50;;;5.90;99.90;;;;;;5058492;28;20181;-82
2024/01/01 08:50:33;;;;;;;4.73;1.63;;;6.00;1.00;;;;;;5060743;28;20173;-81
2024/01/01 08:52:59;;;;;;;4.50;1.60;;;5.90;33.30;;;;;;5066496;28;20196;-81
2024/01/01 08:55:24;;;;;;;4.77;1.43;;;5.90;31.00;;;;;;5067640;28;20226;-81
2024/01/01 08:57:50;;;;;;;3.70;1.03;;;5.90;34.60;;;;;;5071287;28;20167;-81
2024/01/01 09:00:18;;;;;;;5.57;1.70;;;5.90;1.00;;;;;;5072378;28;20176;-81
2024/01/01 09:02:44;;;;;;;3.37;1.17;;;5.90;26.70;;;;;;5072475;28;20195;-81
2024/01/01 09:05:09;;;;;;;5.00;1.60;;;6.00;12.10;;;;;;5072500;28;20176;-81
2024/01/01 09:07:35;;;;;;;4.37;1.47;;;6.10;1.00;;;;;;5071148;28;20185;-81
2024/01/01 09:10:02;;;;;;;7.73;1.40;;;6.10;1.00;;;;;;5070820;28;20263;-81
2024/01/01 09:12:28;;;;;;;3.93;1.73;;;6.10;1.00;;;;;;5054979;28;20203;-82
2024/01/01 09:14:54;;;;;;;3.20;1.23;;;6.10;1.00;;;;;;5057888;28;20239;-82
2024/01/01 09:17:20;;;;;;;6.57;1.70;;;6.10;1.00;;;;;;5068165;28;20171;-81
2024/01/01 09:19:46;;;;;;;4.57;1.23;;;6.10;1.00;;;;;;5067378;28;20679;-78
2024/01/01 09:22:12;;;;;;;6.73;1.53;;;6.10;1.00;;;;;;5051971;28;20212;-86
2024/01/01 09:24:38;;;;;;;5.93;1.47;;;6.20;1.00;;;;;;5067521;28;20683;-86
2024/01/01 09:27:04;;;;;;;5.87;2.10;;;6.20;1.00;;;;;;5071612;28;20180;-85
2024/01/01 09:29:29;;;;;;;7.20;1.90;;;6.20;1.00;;;;;;5070195;28;20253;-86
2024/01/01 09:31:55;;;;;;;5.77;1.40;;;6.20;1.00;;;;;;5071004;28;20248;-85
2024/01/01 09:34:21;;;;;;;3.50;1.50;;;6.20;1.00;;;;;;5071572;28;20198;-84
2024/01/01 09:36:46;;;;;;;5.17;1.47;;;6.30;1.00;;;;;;5066955;28;20177;-86
2024/01/01 09:39:12;;;;;;;6.37;1.40;;;6.30;1.00;;;;;;5071694;28;20266;-85
2024/01/01 09:41:38;;;;;;;3.90;1.80;;;6.30;1.00;;;;;;5071506;28;20251;-85
2024/01/01 09:44:03;;;;;;;5.83;1.33;;;6.40;99.90;;;;;;5069983;28;20229;-85
2024/01/01 09:46:33;;;;;;;2.87;1.27;;;6.50;99.90;;;;;;5070442;28;20206;-85
2024/01/01 09:49:02;;;;;;;6.23;1.70;;;6.60;1.00;;;;;;5071489;28;20180;-85
2024/01/01 09:51:28;;;;;;;3.50;1.70;;;6.50;41.70;;;;;;5071701;28;20654;-86
2024/01/01 09:53:53;;;;;;;6.47;1.90;;;6.50;99.90;;;;;;5070081;28;20219;-85
2024/01/01 09:56:20;;;;;;;4.37;1.50;;;6.60;99.90;;;;;;5070410;28;20207;-84
2024/01/01 09:58:45;;;;;;;5.23;1.50;;;6.60;99.90;;;;;;5069877;28;20168;-87
2024/01/01 10:01:13;;;;;;;8.27;1.77;;;6.60;90.40;;;;;;5070156;28;20234;-81
2024/01/01 10:03:39;;;;;;;4.93;1.40;;;6.70;99.90;;;;;;5069962;28;20203;-85
2024/01/01 10:06:10;;;;;;;3.77;1.40;;;6.70;99.90;;;;;;5071693;28;20177;-84
2024/01/01 10:08:35;;;;;;;7.10;1.30;;;6.70;99.90;;;;;;5070505;28;20181;-85
2024/01/01 10:11:20;;;;;;;5.03;1.50;;;6.70;1.00;;;;;;5069935;28;20265;-85
2024/01/01 10:13:47;;;;;;;4.03;1.50;;;6.60;1.00;;;;;;5070091;28;20200;-88
2024/01/01 10:16:26;;;;;;;7.33;2.03;;;6.70;1.00;;;;;;5069866;28;20204;-85
2024/01/01 10:18:57;;;;;;;4.17;1.30;;;6.60;1.00;;;;;;5062795;28;20193;-85
2024/01/01 10:24:19;;;;;;;5.13;1.60;;;6.60;1.00;;;;;;5110409;27;20560;-83
2024/01/01 10:26:46;;;;;;;5.40;1.73;;;6.60;1.00;;;;;;5110727;28;20175;-85
2024/01/01 10:29:15;;;;;;;9.03;1.87;;;6.60;1.00;;;;;;5110414;28;20164;-83
2024/01/01 10:31:45;;;;;;;5.40;2.00;;;6.60;99.90;;;;;;5126000;28;20223;-84
2024/01/01 10:34:14;;;;;;;7.23;1.93;;;6.60;99.90;;;;;;5109884;28;20263;-86
2024/01/01 10:36:41;;;;;;;5.53;1.73;;;6.50;1.00;;;;;;5150479;22;20269;-82
2024/01/01 10:39:11;;;;;;;5.83;1.63;;;6.50;1.00;;;;;;5088250;28;20169;-82
2024/01/01 10:41:38;;;;;;;4.70;1.70;;;6.50;1.00;;;;;;5085393;28;20639;-82
2024/01/01 10:44:08;;;;;;;6.03;1.53;;;6.50;1.00;;;;;;5082752;28;20183;-82
2024/01/01 10:46:37;;;;;;;3.23;1.17;;;6.40;91.80;;;;;;5056936;28;20197;-81
2024/01/01 10:49:06;;;;;;;6.23;1.70;;;6.40;1.00;;;;;;5050485;28;20642;-85
2024/01/01 10:51:41;;;;;;;6.47;1.80;;;6.30;40.00;;;;;;5050019;28;20189;-81
2024/01/01 10:54:45;;;;;;;6.30;1.80;;;6.40;99.90;;;;;;5063072;28;20179;-77
2024/01/01 10:57:24;;;;;;;9.00;2.57;;;6.30;94.90;;;;;;5059819;28;20204;-80
2024/01/01 11:00:00;;;;;;;5.27;1.67;;;6.40;99.90;;;;;;5056009;28;20300;-79
2024/01/01 11:02:27;;;;;;;7.63;1.90;;;6.50;99.90;;;;;;5064861;28;20222;-81
2024/01/01 11:05:06;;;;;;;3.77;1.40;;;6.50;99.90;;;;;;5060509;28;20633;-81
2024/01/01 11:07:58;;;;;;;5.03;1.60;;;6.50;99.90;;;;;;5068880;28;20193;-81
2024/01/01 11:10:51;;;;;;;4.70;1.67;;;6.40;99.90;;;;;;5068495;28;20171;-81
2024/01/01 11:13:25;;;;;;;5.40;1.60;;;6.40;99.90;;;;;;5064729;28;20198;-82
2024/01/01 11:15:58;;;;;;;6.13;1.47;;;6.40;99.90;;;;;;5067940;28;20222;-78
2024/01/01 11:18:34;;;;;;;8.20;1.77;;;6.40;99.90;;;;;;5067696;28;20185;-85
2024/01/01 11:21:07;;;;;;;3.87;1.63;;;6.40;35.00;;;;;;5052291;28;20234;-84
2024/01/01 11:23:46;;;;;;;5.70;1.67;;;6.30;99.90;;;;;;5059818;28;20287;-84
2024/01/01 11:26:23;;;;;;;4.90;1.40;;;6.20;99.90;;;;;;5068300;28;20197;-83
2024/01/01 11:28:50;;;;;;;5.43;1.50;;;6.20;99.90;;;;;;5068439;28;20176;-84
2024/01/01 11:31:16;;;;;;;7.83;1.50;;;6.10;99.90;;;;;;5066916;28;20177;-84
2024/01/01 11:33:41;;;;;;;6.93;1.60;;;6.10;99.90;;;;;;5063866;28;20551;-84
2024/01/01 11:36:10;;;;;;;2.73;1.37;;;6.10;99.90;;;;;;5055031;28;20274;-84
2024/01/01 11:38:37;;;;;;;6.90;1.50;;;6.20;99.90;;;;;;5053766;28;20180;-83
2024/01/01 11:41:03;;;;;;;3.73;1.40;;;6.10;99.90;;;;;;5054713;28;20177;-83
2024/01/01 11:43:28;;;;;;;5.53;1.47;;;6.10;99.90;;;;;;5054887;28;20213;-83
2024/01/01 11:45:57;;;;;;;3.97;1.27;;;6.10;99.90;;;;;;5055176;28;20210;-83
2024/01/01 11:48:23;;;;;;;5.80;1.40;;;6.10;99.90;;;;;;5054964;28;20644;-83
2024/01/01 11:50:49;;;;;;;3.90;1.50;;;6.00;99.90;;;;;;5053982;28;20209;-83
2024/01/01 11:53:15;;;;;;;4.03;1.20;;;6.00;99.90;;;;;;5055228;28;20212;-83
2024/01/01 11:55:41;;;;;;;3.17;1.40;;;6.00;99.90;;;;;;5053911;28;20280;-84
2024/01/01 11:58:06;;;;;;;7.10;2.13;;;6.00;99.90;;;;;;5053492;28;20268;-83
2024/01/01 12:00:32;;;;;;;7.17;2.00;;;6.10;99.90;;;;;;5053408;28;20179;-83
2024/01/01 12:02:58;;;;;;;4.60;1.70;;;6.10;99.90;;;;;;5054923;28;20193;-83
2024/01/01 12:05:24;;;;;;;5.83;1.67;;;6.10;99.90;;;;;;5055240;28;20197;-83
2024/01/01 12:07:49;;;;;;;5.50;1.60;;;6.10;99.90;;;;;;5053411;28;20176;-83
2024/01/01 12:10:17;;;;;;;3.90;1.63;;;6.10;99.90;;;;;;5053435;28;20169;-82
2024/01/01 12:12:44;;;;;;;4.47;1.50;;;6.20;99.90;;;;;;5054962;28;20181;-83
2024/01/01 12:15:18;;;;;;;5.57;1.60;;;6.10;99.90;;;;;;5054324;28;20653;-82
2024/01/01 12:17:49;;;;;;;9.13;4.03;;;6.10;99.90;;;;;;5053514;28;20226;-83
2024/01/01 12:20:16;;;;;;;5.80;2.10;;;6.20;99.90;;;;;;5053495;28;20219;-83
2024/01/01 12:22:42;;;;;;;8.03;2.40;;;6.20;99.90;;;;;;5054407;28;20199;-83
2024/01/01 12:25:16;;;;;;;3.60;1.80;;;6.20;99.90;;;;;;5053340;28;20268;-83
2024/01/01 12:27:42;;;;;;;7.37;1.77;;;6.20;99.90;;;;;;5054318;28;20176;-83
2024/01/01 12:30:08;;;;;;;5.03;1.80;;;6.20;99.90;;;;;;5053076;28;20649;-83
2024/01/01 12:32:34;;;;;;;5.73;1.57;;;6.30;99.90;;;;;;5052888;28;20262;-83
2024/01/01 12:35:00;;;;;;;6.37;1.90;;;6.30;99.90;;;;;;5052837;28;20327;-83
2024/01/01 12:37:26;;;;;;;7.13;1.80;;;6.30;99.90;;;;;;5054173;28;20190;-82
2024/01/01 12:39:52;;;;;;;6.23;1.90;;;6.20;99.90;;;;;;5052598;28;20226;-83
2024/01/01 12:42:17;;;;;;;6.10;1.63;;;6.20;99.90;;;;;;5054317;28;20265;-83
2024/01/01 12:44:43;;;;;;;5.07;1.57;;;6.30;99.90;;;;;;5052787;28;20188;-83
2024/01/01 12:47:10;;;;;;;8.30;1.77;;;6.20;99.90;;;;;;5053067;28;20193;-83
2024/01/01 12:49:36;;;;;;;2.33;1.50;;;6.20;99.90;;;;;;5053989;28;20173;-82
2024/01/01 12:52:02;;;;;;;5.07;1.83;;;6.20;99.90;;;;;;5052630;28;20176;-83
2024/01/01 12:54:28;;;;;;;6.30;2.17;;;6.30;99.90;;;;;;5052636;28;20204;-83
2024/01/01 12:56:53;;;;;;;5.57;1.70;;;6.30;99.90;;;;;;5052825;28;20197;-83
2024/01/01 12:59:20;;;;;;;6.23;1.70;;;6.40;99.90;;;;;;5053604;28;20268;-83
2024/01/01 13:01:46;;;;;;;7.80;2.00;;;6.40;99.90;;;;;;5049095;28;20162;-83